Time;durP1;ratioP1;P1;durP2;ratioP2;P2;SDS_P1;SDS_P2;PMS_P1;PMS_P2;Temp;Humidity;BMP_temperature;BMP_pressure;BME280_temperature;BME280_humidity;BME280_pressure;Samples;Min_cycle;Max_cycle;Signal;HPM_P1;HPM_P2
2024/04/20 00:02:17;;;;;;;18.30;14.70;;;;;;;7.07;100.00;100851.64;107791;1255;72753;-76
2024/04/20 00:04:47;;;;;;;17.60;14.50;;;;;;;7.13;100.00;100850.20;107258;1255;61386;-78
2024/04/20 00:07:15;;;;;;;20.20;14.10;;;;;;;7.18;100.00;100846.31;105850;1251;61274;-77
2024/04/20 00:09:42;;;;;;;16.80;14.40;;;;;;;7.21;100.00;100846.68;105855;1253;73457;-76
2024/04/20 00:12:10;;;;;;;17.10;13.60;;;;;;;7.23;100.00;100850.24;105821;1255;63763;-76
2024/04/20 00:14:37;;;;;;;15.60;12.90;;;;;;;7.23;100.00;100846.25;105908;1255;72536;-75
2024/04/20 00:17:04;;;;;;;18.20;13.60;;;;;;;7.24;100.00;100846.06;105917;1253;61358;-77
2024/04/20 00:19:31;;;;;;;18.50;13.70;;;;;;;7.25;100.00;100848.59;105798;1251;61277;-77
2024/04/20 00:21:58;;;;;;;18.30;12.90;;;;;;;7.25;100.00;100843.92;105942;1253;74574;-75
2024/04/20 00:24:25;;;;;;;17.10;13.90;;;;;;;7.25;100.00;100845.83;105815;1255;63829;-76
2024/04/20 00:26:51;;;;;;;20.10;14.70;;;;;;;7.25;100.00;100847.91;106159;1251;72621;-78
2024/04/20 00:29:19;;;;;;;18.10;13.30;;;;;;;7.21;100.00;100847.91;105947;1255;61175;-77
2024/04/20 00:31:45;;;;;;;19.10;14.10;;;;;;;7.17;100.00;100841.29;105863;1251;61132;-76
2024/04/20 00:34:12;;;;;;;15.80;12.40;;;;;;;7.15;100.00;100844.15;105870;1255;74724;-74
2024/04/20 00:36:39;;;;;;;17.30;12.90;;;;;;;7.10;100.00;100838.28;106100;1252;62356;-75
2024/04/20 00:39:06;;;;;;;16.50;14.30;;;;;;;7.07;100.00;100844.33;105773;1255;71628;-75
2024/04/20 00:41:33;;;;;;;19.10;14.00;;;;;;;7.04;100.00;100846.16;105764;1256;61584;-75
2024/04/20 00:44:00;;;;;;;15.00;12.90;;;;;;;7.00;100.00;100846.52;105791;1252;61267;-75
2024/04/20 00:46:27;;;;;;;15.90;12.10;;;;;;;6.96;100.00;100849.48;105781;1254;74617;-73
2024/04/20 00:48:54;;;;;;;15.50;11.70;;;;;;;6.93;100.00;100849.08;105821;1256;63977;-75
2024/04/20 00:51:21;;;;;;;15.50;13.20;;;;;;;6.88;100.00;100848.94;105940;1255;72674;-75
2024/04/20 00:53:51;;;;;;;14.40;11.80;;;;;;;6.84;100.00;100851.02;105865;1252;61238;-75
2024/04/20 00:56:19;;;;;;;17.20;12.30;;;;;;;6.82;100.00;100857.35;105740;1251;61293;-76
2024/04/20 00:58:45;;;;;;;17.00;13.70;;;;;;;6.78;100.00;100855.93;105674;1251;73444;-74
2024/04/20 01:01:12;;;;;;;14.90;11.30;;;;;;;6.76;100.00;100856.57;105806;1251;63739;-77
2024/04/20 01:03:40;;;;;;;14.80;12.20;;;;;;;6.72;100.00;100858.82;105843;1252;72558;-77
2024/04/20 01:06:07;;;;;;;14.50;12.60;;;;;;;6.68;100.00;100857.21;106005;1256;61319;-75
2024/04/20 01:08:34;;;;;;;16.50;13.60;;;;;;;6.65;100.00;100852.29;105833;1254;61216;-74
2024/04/20 01:11:01;;;;;;;15.40;12.70;;;;;;;6.63;100.00;100852.36;105768;1255;74672;-76
2024/04/20 01:13:28;;;;;;;14.50;11.50;;;;;;;6.59;100.00;100856.17;105956;1255;63947;-75
2024/04/20 01:15:55;;;;;;;16.00;11.80;;;;;;;6.55;100.00;100862.05;105841;1253;72713;-73
2024/04/20 01:18:22;;;;;;;15.90;12.00;;;;;;;6.51;100.00;100865.86;106044;1255;61257;-75
2024/04/20 01:20:49;;;;;;;14.40;12.10;;;;;;;6.48;100.00;100861.66;105829;1252;61267;-76
2024/04/20 01:23:16;;;;;;;16.40;12.50;;;;;;;6.47;100.00;100860.81;105849;1251;73241;-74
2024/04/20 01:25:52;;;;;;;12.80;11.20;;;;;;;6.45;100.00;100859.67;105843;1252;63972;-74
2024/04/20 01:28:19;;;;;;;15.30;11.80;;;;;;;6.42;100.00;100857.38;105939;1253;72888;-75
2024/04/20 01:30:46;;;;;;;15.80;11.70;;;;;;;6.38;100.00;100859.95;105835;1256;61235;-75
2024/04/20 01:33:13;;;;;;;18.60;13.90;;;;;;;6.33;100.00;100865.90;105893;1255;61171;-75
2024/04/20 01:35:41;;;;;;;14.80;11.50;;;;;;;6.26;100.00;100863.37;105680;1251;74666;-76
2024/04/20 01:38:08;;;;;;;13.20;11.20;;;;;;;6.19;100.00;100861.70;105714;1256;62764;-76
2024/04/20 01:40:37;;;;;;;15.70;11.00;;;;;;;6.14;100.00;100860.87;105782;1253;71349;-75
2024/04/20 01:43:04;;;;;;;15.90;11.40;;;;;;;6.08;100.00;100863.52;106052;1251;61410;-76
2024/04/20 01:45:31;;;;;;;17.30;12.20;;;;;;;6.06;100.00;100867.42;105851;1251;61271;-74
2024/04/20 01:47:58;;;;;;;20.70;12.50;;;;;;;6.06;100.00;100866.55;105735;1251;74555;-74
2024/04/20 01:50:24;;;;;;;21.20;12.80;;;;;;;6.06;100.00;100865.54;105838;1255;63993;-75
2024/04/20 01:52:51;;;;;;;13.60;11.80;;;;;;;6.06;100.00;100862.23;105841;1253;72317;-76
2024/04/20 01:55:19;;;;;;;12.60;11.10;;;;;;;6.05;100.00;100856.86;105825;1256;61259;-75
2024/04/20 01:57:45;;;;;;;14.40;10.80;;;;;;;6.03;100.00;100860.05;105927;1253;61222;-74
2024/04/20 02:00:13;;;;;;;14.40;12.00;;;;;;;6.01;100.00;100859.45;105888;1251;74632;-75
2024/04/20 02:02:40;;;;;;;18.00;11.20;;;;;;;5.97;100.00;100863.25;105975;1255;62799;-75
2024/04/20 02:05:07;;;;;;;14.00;10.10;;;;;;;5.91;100.00;100866.21;105948;1254;72690;-74
2024/04/20 02:07:38;;;;;;;14.90;11.30;;;;;;;5.83;100.00;100869.77;105888;1255;62177;-75
2024/04/20 02:10:05;;;;;;;12.70;10.50;;;;;;;5.77;100.00;100871.92;105771;1256;61168;-76
2024/04/20 02:12:34;;;;;;;13.20;11.00;;;;;;;5.74;100.00;100876.53;105993;1253;73396;-75
2024/04/20 02:15:01;;;;;;;13.40;11.10;;;;;;;5.73;100.00;100876.38;105890;1255;63710;-75
2024/04/20 02:17:28;;;;;;;15.20;11.20;;;;;;;5.73;100.00;100876.89;105766;1255;72715;-74
2024/04/20 02:19:55;;;;;;;15.60;10.40;;;;;;;5.72;100.00;100876.59;105879;1256;61241;-74
2024/04/20 02:22:22;;;;;;;14.60;11.00;;;;;;;5.71;100.00;100878.36;105823;1251;61344;-76
2024/04/20 02:24:48;;;;;;;20.30;12.90;;;;;;;5.71;100.00;100875.61;105744;1253;61216;-76
2024/04/20 02:27:15;;;;;;;23.30;13.50;;;;;;;5.70;100.00;100882.76;105775;1255;63880;-77
2024/04/20 02:29:41;;;;;;;17.70;11.90;;;;;;;5.67;100.00;100879.90;105881;1256;71611;-78
2024/04/20 02:32:09;;;;;;;16.00;10.90;;;;;;;5.62;100.00;100877.13;105814;1255;61169;-74
2024/04/20 02:34:35;;;;;;;17.50;10.90;;;;;;;5.55;100.00;100879.27;105865;1253;61263;-74
2024/04/20 02:37:09;;;;;;;15.00;11.40;;;;;;;5.51;100.00;100883.39;105883;1253;75027;-75
2024/04/20 02:39:36;;;;;;;17.20;10.80;;;;;;;5.47;100.00;100881.49;107396;1251;64023;-74
2024/04/20 02:42:05;;;;;;;21.20;13.50;;;;;;;5.44;100.00;100879.48;108405;1251;71466;-75
2024/04/20 02:44:33;;;;;;;17.50;14.40;;;;;;;5.43;100.00;100878.48;107897;1251;59910;-73
2024/04/20 02:47:00;;;;;;;15.90;13.10;;;;;;;5.43;100.00;100878.00;106840;1255;61341;-76
2024/04/20 02:49:27;;;;;;;17.10;12.70;;;;;;;5.44;100.00;100871.70;105894;1253;74563;-75
2024/04/20 02:51:54;;;;;;;17.00;14.60;;;;;;;5.45;100.00;100870.10;105880;1255;64554;-76
2024/04/20 02:54:21;;;;;;;17.60;13.80;;;;;;;5.45;100.00;100866.80;105922;1254;72774;-76
2024/04/20 02:56:48;;;;;;;17.40;14.30;;;;;;;5.45;100.00;100865.92;105829;1255;61308;-75
2024/04/20 02:59:14;;;;;;;13.60;11.80;;;;;;;5.43;100.00;100871.73;105801;1255;61148;-74
2024/04/20 03:01:42;;;;;;;20.80;14.00;;;;;;;5.39;100.00;100876.19;105955;1255;74605;-74
2024/04/20 03:04:09;;;;;;;21.80;14.60;;;;;;;5.35;100.00;100876.69;106218;1255;62581;-76
2024/04/20 03:06:36;;;;;;;21.80;17.20;;;;;;;5.30;100.00;100878.04;106589;1253;72645;-73
2024/04/20 03:09:03;;;;;;;28.70;22.60;;;;;;;5.28;100.00;100877.27;106354;1255;61218;-74
2024/04/20 03:11:30;;;;;;;37.50;31.90;;;;;;;5.25;100.00;100874.94;106275;1251;61256;-73
2024/04/20 03:13:56;;;;;;;40.30;35.40;;;;;;;5.25;100.00;100870.27;106160;1256;73133;-73
2024/04/20 03:16:23;;;;;;;42.30;33.90;;;;;;;5.25;100.00;100869.22;105877;1253;62815;-76
2024/04/20 03:18:50;;;;;;;39.50;31.50;;;;;;;5.27;100.00;100868.47;105998;1253;72673;-73
2024/04/20 03:21:17;;;;;;;36.80;28.70;;;;;;;5.29;100.00;100875.67;105757;1255;61183;-74
2024/04/20 03:23:44;;;;;;;45.20;38.30;;;;;;;5.30;100.00;100878.92;106011;1255;61248;-75
2024/04/20 03:26:11;;;;;;;35.20;29.70;;;;;;;5.28;100.00;100882.11;105771;1255;74803;-76
2024/04/20 03:28:37;;;;;;;32.40;28.20;;;;;;;5.26;100.00;100883.75;105873;1255;63729;-75
2024/04/20 03:31:04;;;;;;;40.30;34.10;;;;;;;5.24;100.00;100885.53;105787;1252;72658;-76
2024/04/20 03:33:34;;;;;;;37.80;32.80;;;;;;;5.25;100.00;100887.77;105806;1253;61296;-75
2024/04/20 03:36:01;;;;;;;40.80;32.80;;;;;;;5.27;100.00;100892.21;105847;1251;61488;-76
2024/04/20 03:40:27;;;;;;;46.90;36.10;;;;;;;5.33;100.00;100889.74;102749;1293;600895;-77
2024/04/20 03:42:55;;;;;;;61.30;53.50;;;;;;;5.34;100.00;100891.45;104874;1264;60441;-77
2024/04/20 03:45:22;;;;;;;54.30;44.90;;;;;;;5.40;100.00;100894.88;104900;1270;60103;-74
2024/04/20 03:47:50;;;;;;;48.00;42.20;;;;;;;5.48;100.00;100893.59;104823;1265;74334;-76
2024/04/20 03:50:19;;;;;;;55.10;44.80;;;;;;;5.55;100.00;100891.75;104804;1265;62445;-76
2024/04/20 03:52:47;;;;;;;48.10;40.70;;;;;;;5.62;100.00;100893.94;104932;1270;74838;-76
2024/04/20 03:55:14;;;;;;;34.30;29.50;;;;;;;5.70;100.00;100893.68;104846;1264;217572;-76
2024/04/20 03:57:42;;;;;;;34.20;28.80;;;;;;;5.77;100.00;100897.57;105011;1267;59554;-76
2024/04/20 04:00:11;;;;;;;32.20;28.40;;;;;;;5.85;100.00;100893.14;105184;1267;73280;-78
2024/04/20 04:02:39;;;;;;;31.40;25.10;;;;;;;5.95;100.00;100896.29;105024;1264;62289;-75
2024/04/20 04:05:07;;;;;;;28.00;24.60;;;;;;;6.02;100.00;100898.45;106190;1257;71888;-73
2024/04/20 04:07:34;;;;;;;31.60;25.40;;;;;;;6.09;100.00;100900.62;105850;1254;60373;-75
2024/04/20 04:10:01;;;;;;;40.10;32.00;;;;;;;6.18;100.00;100904.97;105707;1251;60428;-77
2024/04/20 04:12:29;;;;;;;69.00;53.60;;;;;;;6.30;100.00;100904.89;105942;1266;72700;-76
2024/04/20 04:14:56;;;;;;;87.20;68.50;;;;;;;6.41;100.00;100908.96;105791;1251;64541;-76
2024/04/20 04:17:23;;;;;;;117.90;98.20;;;;;;;6.54;100.00;100907.46;105868;1251;74101;-75
2024/04/20 04:19:51;;;;;;;119.00;101.30;;;;;;;6.67;100.00;100909.90;105876;1251;60505;-76
2024/04/20 04:22:18;;;;;;;118.80;100.60;;;;;;;6.80;100.00;100912.00;105902;1256;60466;-77
2024/04/20 04:24:45;;;;;;;140.30;124.00;;;;;;;6.94;100.00;100909.00;105852;1250;73786;-77
2024/04/20 04:27:15;;;;;;;138.40;122.00;;;;;;;7.09;100.00;100912.55;105868;1257;62487;-77
2024/04/20 04:29:42;;;;;;;125.40;110.80;;;;;;;7.25;100.00;100908.80;105943;1251;71446;-75
2024/04/20 04:32:10;;;;;;;112.70;100.50;;;;;;;7.42;100.00;100907.89;105852;1251;60899;-78
2024/04/20 04:34:38;;;;;;;102.30;88.80;;;;;;;7.64;100.00;100908.20;105917;1250;60472;-75
2024/04/20 04:37:05;;;;;;;92.90;79.80;;;;;;;7.83;100.00;100909.63;105938;1255;73881;-78
2024/04/20 04:39:33;;;;;;;70.50;60.50;;;;;;;7.99;100.00;100911.20;105940;1251;62415;-74
2024/04/20 04:42:00;;;;;;;51.30;41.20;;;;;;;8.12;100.00;100906.56;105928;1250;72709;-77
2024/04/20 04:44:28;;;;;;;73.10;64.00;;;;;;;8.29;100.00;100903.38;106003;1251;60307;-76
2024/04/20 04:46:55;;;;;;;37.00;28.50;;;;;;;8.50;100.00;100900.16;106272;1251;60380;-77
2024/04/20 04:49:22;;;;;;;31.50;27.50;;;;;;;8.74;100.00;100903.77;105933;1251;73902;-77
2024/04/20 04:51:50;;;;;;;28.00;25.00;;;;;;;8.97;100.00;100908.94;105778;1257;62440;-74
2024/04/20 04:54:18;;;;;;;18.70;14.80;;;;;;;9.23;100.00;100910.59;105837;1256;72304;-76
2024/04/20 04:56:45;;;;;;;14.30;11.00;;;;;;;9.55;100.00;100911.80;105952;1256;61743;-76
2024/04/20 04:59:12;;;;;;;11.90;10.60;;;;;;;9.84;100.00;100918.66;105921;1256;60424;-76
2024/04/20 05:01:41;;;;;;;12.10;8.40;;;;;;;10.13;100.00;100923.27;105989;1251;73856;-77
2024/04/20 05:04:09;;;;;;;16.60;8.40;;;;;;;10.51;100.00;100926.66;105926;1256;63968;-76
2024/04/20 05:06:36;;;;;;;13.70;8.50;;;;;;;11.06;100.00;100922.04;105891;1251;71320;-76
2024/04/20 05:09:04;;;;;;;7.90;7.10;;;;;;;11.79;100.00;100914.80;105851;1251;60729;-76
2024/04/20 05:11:31;;;;;;;7.80;6.70;;;;;;;12.62;100.00;100917.77;105902;1250;60650;-75
2024/04/20 05:13:58;;;;;;;6.90;5.80;;;;;;;13.47;100.00;100927.83;105854;1251;72579;-77
2024/04/20 05:16:26;;;;;;;7.50;6.40;;;;;;;14.31;100.00;100932.41;106016;1251;63015;-77
2024/04/20 05:18:54;;;;;;;5.80;5.30;;;;;;;15.05;100.00;100932.39;108085;1250;72956;-75
2024/04/20 05:21:21;;;;;;;6.30;5.10;;;;;;;15.74;100.00;100928.61;108544;1255;60441;-75
2024/04/20 05:23:48;;;;;;;6.00;4.70;;;;;;;16.34;97.34;100930.19;108018;1250;60508;-76
2024/04/20 05:26:17;;;;;;;5.00;4.50;;;;;;;16.92;88.25;100934.88;107784;1250;72611;-75
2024/04/20 05:28:44;;;;;;;4.60;4.10;;;;;;;17.49;86.13;100942.85;107317;1252;62473;-77
2024/04/20 05:31:11;;;;;;;5.00;4.50;;;;;;;18.10;75.65;100938.79;105927;1253;70630;-75
2024/04/20 05:33:38;;;;;;;5.20;4.20;;;;;;;18.64;69.51;100939.86;105931;1254;60415;-76
2024/04/20 05:36:06;;;;;;;4.50;3.30;;;;;;;19.13;64.48;100935.50;105889;1255;60352;-76
2024/04/20 05:38:34;;;;;;;4.50;4.00;;;;;;;19.61;60.51;100938.23;105910;1256;73799;-77
2024/04/20 05:41:05;;;;;;;4.30;3.70;;;;;;;20.04;56.86;100934.91;105847;1250;63763;-78
2024/04/20 05:56:08;;;;;;;3.40;3.10;;;;;;;20.80;44.75;100926.31;102706;1294;600288;-76
2024/04/20 05:58:35;;;;;;;5.00;3.20;;;;;;;20.52;44.14;100918.91;104915;1269;59753;-78
2024/04/20 06:01:03;;;;;;;7.60;4.10;;;;;;;20.39;45.25;100907.77;104868;1266;61717;-77
2024/04/20 06:03:30;;;;;;;4.70;3.40;;;;;;;20.52;44.35;100904.45;104917;1266;71724;-79
2024/04/20 06:05:58;;;;;;;5.10;3.40;;;;;;;20.74;44.44;100905.96;104871;1270;64050;-77
2024/04/20 06:08:26;;;;;;;6.70;4.10;;;;;;;20.92;44.40;100910.42;104942;1266;72185;-75
2024/04/20 06:10:55;;;;;;;3.70;3.00;;;;;;;21.21;43.82;100909.63;105217;1263;219754;-78
2024/04/20 06:13:22;;;;;;;5.70;2.80;;;;;;;21.55;42.47;100906.83;105197;1265;59647;-78
2024/04/20 06:15:50;;;;;;;3.80;3.10;;;;;;;21.83;40.53;100895.77;105407;1257;71843;-77
2024/04/20 06:18:17;;;;;;;4.60;3.50;;;;;;;22.05;39.77;100894.48;105476;1256;63970;-75
2024/04/20 06:20:45;;;;;;;6.70;3.50;;;;;;;22.26;39.00;100888.83;105716;1259;72626;-78
2024/04/20 06:23:14;;;;;;;3.30;2.50;;;;;;;22.50;37.95;100887.00;105696;1259;60350;-78
2024/04/20 06:25:44;;;;;;;2.90;2.60;;;;;;;22.82;38.37;100886.74;105673;1254;60757;-80
2024/04/20 06:28:11;;;;;;;4.20;2.70;;;;;;;23.29;38.38;100879.36;105554;1259;72564;-79
2024/04/20 06:30:39;;;;;;;4.40;2.60;;;;;;;23.78;36.56;100868.56;105581;1254;63478;-79
2024/04/20 06:33:06;;;;;;;5.10;2.60;;;;;;;24.09;35.25;100864.79;105686;1256;72393;-78
2024/04/20 06:35:34;;;;;;;2.30;2.10;;;;;;;24.34;34.27;100864.05;105560;1256;60445;-78
2024/04/20 06:38:01;;;;;;;5.30;2.10;;;;;;;24.50;33.48;100865.05;105607;1257;60572;-80
2024/04/20 06:40:29;;;;;;;6.10;2.00;;;;;;;24.71;32.60;100869.34;105545;1259;74183;-80
2024/04/20 06:42:56;;;;;;;2.20;2.00;;;;;;;24.75;32.27;100859.64;105555;1256;63719;-79
2024/04/20 06:45:23;;;;;;;3.60;2.30;;;;;;;24.69;32.09;100854.91;105792;1255;71951;-77
2024/04/20 06:47:53;;;;;;;2.60;1.60;;;;;;;24.67;32.58;100857.23;105605;1254;60845;-77
2024/04/20 06:50:24;;;;;;;3.00;1.40;;;;;;;24.74;31.70;100858.05;105428;1261;61442;-81
2024/04/20 06:52:51;;;;;;;3.00;1.90;;;;;;;24.65;31.96;100851.17;105654;1254;72519;-78
2024/04/20 06:55:19;;;;;;;5.30;2.40;;;;;;;24.54;32.01;100841.95;105535;1259;62234;-76
2024/04/20 06:57:46;;;;;;;1.70;1.60;;;;;;;24.30;31.71;100844.27;105520;1259;72424;-77
2024/04/20 07:00:14;;;;;;;2.70;1.50;;;;;;;23.92;31.87;100845.59;105492;1257;61551;-79
2024/04/20 07:02:41;;;;;;;3.20;1.70;;;;;;;23.53;32.30;100848.20;105565;1254;60452;-79
2024/04/20 07:05:08;;;;;;;7.00;1.80;;;;;;;23.23;32.86;100845.92;105596;1259;74218;-79
2024/04/20 07:07:36;;;;;;;4.00;1.40;;;;;;;23.00;33.63;100849.39;105491;1259;63899;-77
2024/04/20 07:10:03;;;;;;;2.20;1.50;;;;;;;22.83;34.28;100843.84;105423;1257;72730;-78
2024/04/20 07:12:31;;;;;;;2.00;1.80;;;;;;;22.72;34.57;100843.03;105500;1258;61853;-79
2024/04/20 07:14:59;;;;;;;6.20;2.00;;;;;;;22.67;34.81;100833.76;105688;1254;60617;-77
2024/04/20 07:17:27;;;;;;;3.70;2.00;;;;;;;22.62;35.00;100830.15;105494;1256;73012;-77
2024/04/20 07:19:55;;;;;;;3.10;1.40;;;;;;;22.48;34.80;100830.16;105611;1254;62325;-75
2024/04/20 07:22:22;;;;;;;1.50;1.30;;;;;;;22.27;35.07;100829.32;105614;1258;72357;-78
2024/04/20 07:24:52;;;;;;;2.10;1.30;;;;;;;22.15;35.48;100832.39;105458;1256;60554;-77
2024/04/20 07:27:19;;;;;;;1.40;1.20;;;;;;;22.11;35.90;100833.28;105393;1254;60546;-77
2024/04/20 07:29:47;;;;;;;1.50;1.00;;;;;;;22.07;35.65;100835.19;105511;1254;73905;-75
2024/04/20 07:32:14;;;;;;;2.30;1.70;;;;;;;22.04;35.85;100832.09;105453;1256;64649;-79
2024/04/20 07:34:41;;;;;;;2.30;2.10;;;;;;;22.09;35.88;100836.05;105367;1256;73125;-76
2024/04/20 07:37:13;;;;;;;1.10;0.90;;;;;;;22.27;36.54;100829.92;105360;1260;60597;-80
2024/04/20 07:39:40;;;;;;;7.30;1.40;;;;;;;22.62;35.56;100823.86;105465;1256;61042;-78
2024/04/20 07:42:08;;;;;;;1.40;0.80;;;;;;;23.01;35.17;100821.82;105734;1257;73059;-75
2024/04/20 07:44:35;;;;;;;1.90;1.20;;;;;;;23.39;34.51;100812.64;105618;1254;63680;-76
2024/04/20 07:47:03;;;;;;;2.60;1.00;;;;;;;23.71;33.27;100805.38;105559;1259;74235;-76
2024/04/20 07:49:38;;;;;;;2.60;1.70;;;;;;;23.99;32.72;100805.55;105523;1259;60530;-78
2024/04/20 07:52:05;;;;;;;4.80;1.10;;;;;;;24.16;32.70;100797.25;105532;1256;60940;-77
2024/04/20 07:54:33;;;;;;;3.20;1.10;;;;;;;24.34;32.97;100799.89;105513;1255;74925;-77
2024/04/20 07:57:01;;;;;;;6.10;1.20;;;;;;;24.56;32.44;100793.75;105646;1257;62274;-75
2024/04/20 07:59:28;;;;;;;1.50;0.90;;;;;;;24.80;31.76;100792.83;105602;1256;74350;-79
2024/04/20 08:01:57;;;;;;;2.00;1.10;;;;;;;25.12;31.65;100791.66;105527;1259;60540;-76
2024/04/20 08:04:24;;;;;;;1.70;1.30;;;;;;;25.55;31.28;100785.06;105807;1259;60525;-78
2024/04/20 08:06:53;;;;;;;2.30;1.40;;;;;;;25.91;31.01;100782.89;105771;1255;73706;-75
2024/04/20 08:09:20;;;;;;;4.10;1.20;;;;;;;26.25;29.77;100783.30;107944;1252;65522;-76
2024/04/20 08:11:48;;;;;;;4.20;1.60;;;;;;;26.57;30.23;100776.69;108594;1253;74343;-77
2024/04/20 08:14:16;;;;;;;4.90;1.10;;;;;;;26.94;29.16;100769.45;106167;1253;60580;-80
2024/04/20 08:16:43;;;;;;;4.40;1.50;;;;;;;27.30;28.93;100768.11;106628;1253;61492;-77
2024/04/20 08:19:10;;;;;;;2.10;1.00;;;;;;;27.61;28.41;100760.30;106111;1253;75337;-77
2024/04/20 08:21:38;;;;;;;1.80;1.00;;;;;;;27.85;27.66;100756.10;106073;1253;63555;-75
2024/04/20 08:24:06;;;;;;;5.20;1.30;;;;;;;27.91;28.08;100752.33;106074;1253;73247;-76
2024/04/20 08:26:33;;;;;;;2.90;1.50;;;;;;;28.01;27.71;100746.66;105920;1253;60451;-78
2024/04/20 08:29:00;;;;;;;1.80;1.60;;;;;;;28.16;27.74;100742.30;105917;1256;60343;-78
2024/04/20 08:31:28;;;;;;;3.50;1.40;;;;;;;28.31;27.31;100743.94;105734;1253;74481;-81
2024/04/20 08:33:58;;;;;;;4.90;1.40;;;;;;;28.39;26.55;100734.20;105652;1253;62329;-78
2024/04/20 08:36:25;;;;;;;1.50;1.50;;;;;;;28.38;26.66;100736.23;105852;1253;71644;-76
2024/04/20 08:38:52;;;;;;;1.90;1.10;;;;;;;28.29;26.51;100735.92;105871;1257;60446;-79
2024/04/20 08:41:24;;;;;;;3.60;1.50;;;;;;;28.17;26.35;100733.04;105742;1256;60439;-79
2024/04/20 08:43:52;;;;;;;3.40;1.70;;;;;;;27.93;26.01;100727.73;105613;1258;75528;-79
2024/04/20 08:46:19;;;;;;;2.90;1.50;;;;;;;27.79;26.69;100721.48;105821;1253;62972;-80
2024/04/20 08:48:47;;;;;;;2.70;1.50;;;;;;;27.77;26.96;100718.73;105629;1253;74907;-77
2024/04/20 08:51:17;;;;;;;2.80;1.30;;;;;;;27.80;26.83;100719.91;105767;1254;61162;-77
2024/04/20 08:53:45;;;;;;;3.60;1.20;;;;;;;27.82;26.68;100713.34;105832;1253;60732;-79
2024/04/20 08:56:12;;;;;;;2.80;1.20;;;;;;;27.97;26.88;100710.70;105630;1255;73802;-80
2024/04/20 08:58:39;;;;;;;4.30;1.90;;;;;;;28.06;27.06;100705.95;105956;1259;63725;-78
2024/04/20 09:01:12;;;;;;;7.70;1.40;;;;;;;28.22;27.53;100703.09;105736;1256;73353;-79
2024/04/20 09:03:40;;;;;;;3.60;1.50;;;;;;;28.34;26.87;100705.39;105738;1258;63517;-78
2024/04/20 09:06:08;;;;;;;1.50;1.00;;;;;;;28.37;26.45;100699.74;105833;1253;62510;-78
2024/04/20 09:08:36;;;;;;;2.20;1.00;;;;;;;28.39;26.81;100691.23;105582;1253;74057;-80
2024/04/20 09:11:03;;;;;;;0.90;0.70;;;;;;;28.54;26.96;100703.45;105716;1258;64576;-77
2024/04/20 09:13:31;;;;;;;2.20;1.10;;;;;;;28.65;26.31;100699.27;105657;1253;71430;-78
2024/04/20 09:15:58;;;;;;;5.40;1.10;;;;;;;28.63;25.55;100695.98;105856;1253;60453;-80
2024/04/20 09:18:26;;;;;;;2.40;0.80;;;;;;;28.52;26.21;100691.09;106019;1258;60428;-79
2024/04/20 09:20:57;;;;;;;3.60;0.90;;;;;;;28.56;25.94;100684.58;105759;1259;72912;-79
2024/04/20 09:23:24;;;;;;;0.90;0.80;;;;;;;28.61;26.32;100682.86;105684;1253;64298;-78
2024/04/20 09:25:53;;;;;;;2.50;1.00;;;;;;;28.76;26.26;100677.23;105749;1259;72516;-80
2024/04/20 09:28:28;;;;;;;2.80;0.70;;;;;;;28.92;26.41;100680.33;105733;1253;60477;-81
2024/04/20 09:30:55;;;;;;;1.70;0.80;;;;;;;29.04;25.85;100686.15;105900;1259;60400;-78
2024/04/20 09:33:23;;;;;;;1.90;0.50;;;;;;;29.11;25.37;100690.39;105780;1253;74498;-81
2024/04/20 09:35:52;;;;;;;1.10;0.70;;;;;;;29.04;25.34;100677.99;105704;1253;64786;-81
2024/04/20 09:38:19;;;;;;;2.40;0.60;;;;;;;29.01;25.59;100670.62;105832;1252;72357;-78
2024/04/20 09:40:47;;;;;;;0.80;0.70;;;;;;;29.05;25.59;100666.98;105872;1259;60569;-80
2024/04/20 09:43:15;;;;;;;1.40;0.70;;;;;;;29.02;25.41;100660.51;105623;1259;60955;-82
2024/04/20 09:45:42;;;;;;;1.40;0.90;;;;;;;28.90;25.28;100658.02;105733;1258;76699;-78
2024/04/20 09:48:12;;;;;;;4.20;0.70;;;;;;;28.86;25.07;100650.56;105534;1258;62979;-81
2024/04/20 09:50:41;;;;;;;2.00;0.60;;;;;;;28.80;25.32;100649.40;105688;1253;72769;-78
2024/04/20 09:53:14;;;;;;;3.50;0.60;;;;;;;28.73;25.17;100657.42;105570;1258;61049;-80
2024/04/20 09:55:45;;;;;;;5.90;0.70;;;;;;;28.54;25.38;100655.63;105699;1256;60413;-78
2024/04/20 09:58:18;;;;;;;1.60;0.70;;;;;;;28.35;25.38;100644.08;105767;1253;74092;-79
2024/04/20 10:00:45;;;;;;;4.30;0.70;;;;;;;28.08;25.39;100651.73;105854;1258;63363;-78
2024/04/20 10:03:13;;;;;;;2.10;0.90;;;;;;;28.01;25.71;100644.73;105704;1258;73444;-81
2024/04/20 10:05:40;;;;;;;2.10;0.60;;;;;;;27.89;25.60;100642.23;105668;1258;61429;-78
2024/04/20 10:08:09;;;;;;;2.40;0.60;;;;;;;27.67;25.80;100633.06;105680;1254;61340;-76
2024/04/20 10:10:37;;;;;;;1.80;0.70;;;;;;;27.35;25.56;100626.67;105655;1258;74428;-74
2024/04/20 10:13:05;;;;;;;6.00;0.80;;;;;;;27.01;26.45;100617.27;105721;1258;64511;-75
2024/04/20 10:15:33;;;;;;;2.20;0.80;;;;;;;26.84;26.81;100610.58;105556;1254;73154;-76
2024/04/20 10:18:02;;;;;;;2.90;1.10;;;;;;;26.69;26.74;100604.23;105791;1253;61273;-78
2024/04/20 10:20:34;;;;;;;0.80;0.60;;;;;;;26.55;27.10;100602.48;105728;1252;61353;-77
2024/04/20 10:23:11;;;;;;;1.70;0.60;;;;;;;26.56;26.68;100598.58;105840;1258;76689;-79
2024/04/20 10:25:39;;;;;;;1.70;0.60;;;;;;;26.57;26.68;100595.59;105795;1253;64723;-76
2024/04/20 10:28:06;;;;;;;3.00;0.70;;;;;;;26.55;26.46;100587.92;105776;1253;73026;-78
2024/04/20 10:30:34;;;;;;;1.10;0.80;;;;;;;26.48;26.45;100594.36;105794;1253;61365;-76
2024/04/20 10:33:06;;;;;;;1.70;0.90;;;;;;;26.31;26.52;100589.65;105706;1257;61161;-76
2024/04/20 10:35:34;;;;;;;3.50;1.10;;;;;;;26.17;27.05;100579.13;105695;1257;76389;-78
2024/04/20 10:38:03;;;;;;;4.10;0.80;;;;;;;26.14;27.28;100573.90;105732;1257;64383;-78
2024/04/20 10:40:32;;;;;;;4.90;0.70;;;;;;;26.10;27.11;100572.14;105769;1253;73510;-77
2024/04/20 10:43:12;;;;;;;5.80;0.90;;;;;;;26.03;27.40;100571.71;105705;1253;61267;-80
2024/04/20 10:45:40;;;;;;;3.30;0.90;;;;;;;25.81;27.79;100576.70;105688;1253;62610;-76
2024/04/20 10:48:14;;;;;;;5.60;0.90;;;;;;;25.52;28.45;100569.36;105723;1259;76246;-80
2024/04/20 10:50:43;;;;;;;1.00;1.00;;;;;;;25.25;28.54;100568.95;105764;1259;63678;-76
2024/04/20 10:53:11;;;;;;;4.00;1.80;;;;;;;25.09;28.77;100559.85;105751;1259;73505;-79
2024/04/20 10:55:39;;;;;;;3.90;2.20;;;;;;;24.94;28.55;100556.35;105855;1259;61339;-78
2024/04/20 10:58:07;;;;;;;2.40;2.20;;;;;;;24.72;28.87;100563.53;105787;1256;61218;-80
2024/04/20 11:00:34;;;;;;;4.40;3.00;;;;;;;24.48;29.31;100555.23;105692;1253;74390;-80
2024/04/20 11:03:02;;;;;;;3.80;2.60;;;;;;;24.25;29.59;100551.54;105758;1258;63363;-79
2024/04/20 11:05:30;;;;;;;4.10;3.00;;;;;;;23.97;29.96;100547.14;105810;1253;72250;-76
2024/04/20 11:08:00;;;;;;;6.90;3.60;;;;;;;23.69;30.39;100546.25;105733;1259;62614;-78
2024/04/20 11:10:33;;;;;;;5.60;2.80;;;;;;;23.34;30.81;100546.45;105754;1259;61359;-77
2024/04/20 11:13:02;;;;;;;5.80;2.90;;;;;;;22.95;30.90;100539.81;105778;1257;74045;-77
2024/04/20 11:15:30;;;;;;;5.70;2.70;;;;;;;22.59;31.56;100537.64;105889;1253;64842;-76
2024/04/20 11:17:58;;;;;;;5.50;3.30;;;;;;;22.30;31.87;100541.60;106767;1256;72810;-76
2024/04/20 11:20:26;;;;;;;5.40;2.30;;;;;;;21.97;31.95;100534.78;107409;1258;61161;-77
2024/04/20 11:22:55;;;;;;;6.50;1.80;;;;;;;21.65;32.03;100531.42;105819;1254;62544;-77
2024/04/20 11:25:23;;;;;;;9.10;2.10;;;;;;;21.40;32.26;100539.53;105956;1255;73279;-76
2024/04/20 11:27:53;;;;;;;6.60;1.80;;;;;;;21.20;32.62;100535.64;105703;1256;65667;-76